Search for airport 
image banner adimage banner adimage banner ad
image banner ad

KMPO - Pocono Mountains Muni

Located in Mount Pocono, United States

ICAO - MPO, IATA -

Data provided by Airmate  

General information

Coordinates: N41°8'16" W75°22'48"
Elevation is 1915 feet MSL.
Magnetic variation is -13° East
View others Airports in Pennsylvania

Operational data

Special qualification required
Current time UTC:
Current local time:
Weather
METAR: KMPO 212353Z AUTO 10005KT 10SM BKN022 17/16 A3029 RMK AO2 SLP256 T01670156 10189 20167 58007
View NOTAMs / SUP AIP / TFR affecting this airport [VIEW]
Communications frequencies: [VIEW]

Runways:

RWY identifierQFULength (ft)Width (ft)SurfaceLDA (ft)
0537°3999100ASPH
23217°3999100ASPH
13115°500175ASPH
31295°500175ASPH

Airport contact information

Address: Mount Pocono United States

Other aviation service providers

Flight schools

Moyer Aviation, Inc.

Moyer Aviation, Inc.
vern@moyeraviation.com+1(570)839-7161

Hi-Tech Helicopters, Inc

Hi-Tech Helicopters, Inc

Satellite view of KMPO